sensor_id;sensor_type;location;lat;lon;timestamp;P1;durP1;ratioP1;P2;durP2;ratioP2
44862;SDS011;30597;49.628;10.850;2022-10-16T00:02:18;3.80;;;3.10;;
44862;SDS011;30597;49.628;10.850;2022-10-16T00:04:45;3.27;;;2.60;;
44862;SDS011;30597;49.628;10.850;2022-10-16T00:07:12;3.07;;;2.37;;
44862;SDS011;30597;49.628;10.850;2022-10-16T00:09:39;3.10;;;2.80;;
44862;SDS011;30597;49.628;10.850;2022-10-16T00:12:06;2.70;;;2.33;;
44862;SDS011;30597;49.628;10.850;2022-10-16T00:14:33;4.00;;;2.80;;
44862;SDS011;30597;49.628;10.850;2022-10-16T00:17:00;3.50;;;2.70;;
44862;SDS011;30597;49.628;10.850;2022-10-16T00:19:31;3.90;;;2.97;;
44862;SDS011;30597;49.628;10.850;2022-10-16T00:21:57;3.50;;;2.70;;
44862;SDS011;30597;49.628;10.850;2022-10-16T00:24:24;3.20;;;2.37;;
44862;SDS011;30597;49.628;10.850;2022-10-16T00:26:50;3.20;;;2.30;;
44862;SDS011;30597;49.628;10.850;2022-10-16T00:29:17;2.97;;;2.67;;
44862;SDS011;30597;49.628;10.850;2022-10-16T00:31:43;3.30;;;3.00;;
44862;SDS011;30597;49.628;10.850;2022-10-16T00:34:09;5.77;;;3.60;;
44862;SDS011;30597;49.628;10.850;2022-10-16T00:36:37;2.80;;;2.53;;
44862;SDS011;30597;49.628;10.850;2022-10-16T00:39:04;3.47;;;3.17;;
44862;SDS011;30597;49.628;10.850;2022-10-16T00:41:31;3.10;;;2.60;;
44862;SDS011;30597;49.628;10.850;2022-10-16T00:44:02;3.33;;;2.77;;
44862;SDS011;30597;49.628;10.850;2022-10-16T00:46:52;3.00;;;2.63;;
44862;SDS011;30597;49.628;10.850;2022-10-16T00:49:18;3.67;;;2.60;;
44862;SDS011;30597;49.628;10.850;2022-10-16T00:51:49;3.43;;;2.70;;
44862;SDS011;30597;49.628;10.850;2022-10-16T00:54:23;3.10;;;2.60;;
44862;SDS011;30597;49.628;10.850;2022-10-16T00:56:57;3.07;;;2.67;;
44862;SDS011;30597;49.628;10.850;2022-10-16T00:59:28;2.70;;;2.50;;
44862;SDS011;30597;49.628;10.850;2022-10-16T01:01:56;2.87;;;2.67;;
44862;SDS011;30597;49.628;10.850;2022-10-16T01:04:30;3.23;;;2.93;;
44862;SDS011;30597;49.628;10.850;2022-10-16T01:07:23;4.30;;;2.90;;
44862;SDS011;30597;49.628;10.850;2022-10-16T01:15:34;3.20;;;2.87;;
44862;SDS011;30597;49.628;10.850;2022-10-16T01:20:40;3.40;;;2.43;;
44862;SDS011;30597;49.628;10.850;2022-10-16T01:31:29;3.23;;;2.90;;
44862;SDS011;30597;49.628;10.850;2022-10-16T01:34:14;2.77;;;2.57;;
44862;SDS011;30597;49.628;10.850;2022-10-16T01:36:45;3.37;;;2.67;;
44862;SDS011;30597;49.628;10.850;2022-10-16T01:39:28;3.30;;;2.70;;
44862;SDS011;30597;49.628;10.850;2022-10-16T01:42:40;2.37;;;2.17;;
44862;SDS011;30597;49.628;10.850;2022-10-16T01:44:49;2.87;;;2.40;;
44862;SDS011;30597;49.628;10.850;2022-10-16T01:47:18;3.40;;;2.60;;
44862;SDS011;30597;49.628;10.850;2022-10-16T01:49:47;2.60;;;2.40;;
44862;SDS011;30597;49.628;10.850;2022-10-16T01:52:15;2.40;;;2.13;;
44862;SDS011;30597;49.628;10.850;2022-10-16T01:54:46;2.67;;;2.20;;
44862;SDS011;30597;49.628;10.850;2022-10-16T01:57:16;3.80;;;2.07;;
44862;SDS011;30597;49.628;10.850;2022-10-16T01:59:46;3.00;;;2.70;;
44862;SDS011;30597;49.628;10.850;2022-10-16T02:02:17;2.40;;;2.20;;
44862;SDS011;30597;49.628;10.850;2022-10-16T02:04:47;2.47;;;2.27;;
44862;SDS011;30597;49.628;10.850;2022-10-16T02:07:16;3.13;;;2.87;;
44862;SDS011;30597;49.628;10.850;2022-10-16T02:09:44;3.37;;;3.07;;
44862;SDS011;30597;49.628;10.850;2022-10-16T02:12:33;2.57;;;2.37;;
44862;SDS011;30597;49.628;10.850;2022-10-16T02:15:01;3.70;;;2.37;;
44862;SDS011;30597;49.628;10.850;2022-10-16T02:17:29;2.60;;;2.27;;
44862;SDS011;30597;49.628;10.850;2022-10-16T02:20:04;3.10;;;2.50;;
44862;SDS011;30597;49.628;10.850;2022-10-16T02:22:38;2.20;;;2.00;;
44862;SDS011;30597;49.628;10.850;2022-10-16T02:27:56;2.43;;;2.23;;
44862;SDS011;30597;49.628;10.850;2022-10-16T02:30:30;2.13;;;1.93;;
44862;SDS011;30597;49.628;10.850;2022-10-16T02:33:00;2.87;;;2.10;;
44862;SDS011;30597;49.628;10.850;2022-10-16T02:35:33;2.10;;;1.80;;
44862;SDS011;30597;49.628;10.850;2022-10-16T02:37:59;2.30;;;2.10;;
44862;SDS011;30597;49.628;10.850;2022-10-16T02:40:28;2.43;;;2.10;;
44862;SDS011;30597;49.628;10.850;2022-10-16T02:42:57;4.80;;;2.10;;
44862;SDS011;30597;49.628;10.850;2022-10-16T02:45:34;2.70;;;2.37;;
44862;SDS011;30597;49.628;10.850;2022-10-16T02:48:02;2.77;;;2.40;;
44862;SDS011;30597;49.628;10.850;2022-10-16T02:50:34;2.30;;;2.10;;
44862;SDS011;30597;49.628;10.850;2022-10-16T02:53:03;2.50;;;2.03;;
44862;SDS011;30597;49.628;10.850;2022-10-16T02:55:30;2.43;;;2.23;;
44862;SDS011;30597;49.628;10.850;2022-10-16T02:58:01;2.20;;;2.00;;
44862;SDS011;30597;49.628;10.850;2022-10-16T03:00:28;2.37;;;2.17;;
44862;SDS011;30597;49.628;10.850;2022-10-16T03:02:55;2.53;;;2.30;;
44862;SDS011;30597;49.628;10.850;2022-10-16T03:05:24;2.40;;;2.20;;
44862;SDS011;30597;49.628;10.850;2022-10-16T03:07:51;2.13;;;1.93;;
44862;SDS011;30597;49.628;10.850;2022-10-16T03:10:17;2.67;;;2.47;;
44862;SDS011;30597;49.628;10.850;2022-10-16T03:12:44;2.40;;;2.20;;
44862;SDS011;30597;49.628;10.850;2022-10-16T03:15:11;2.10;;;1.87;;
44862;SDS011;30597;49.628;10.850;2022-10-16T03:17:40;2.10;;;1.90;;
44862;SDS011;30597;49.628;10.850;2022-10-16T03:20:09;2.07;;;1.87;;
44862;SDS011;30597;49.628;10.850;2022-10-16T03:22:44;1.80;;;1.70;;
44862;SDS011;30597;49.628;10.850;2022-10-16T03:25:10;2.27;;;1.80;;
44862;SDS011;30597;49.628;10.850;2022-10-16T03:27:36;2.47;;;2.27;;
44862;SDS011;30597;49.628;10.850;2022-10-16T03:30:02;2.40;;;2.20;;
44862;SDS011;30597;49.628;10.850;2022-10-16T03:32:28;2.20;;;2.00;;
44862;SDS011;30597;49.628;10.850;2022-10-16T03:34:53;2.17;;;1.90;;
44862;SDS011;30597;49.628;10.850;2022-10-16T03:37:21;2.30;;;1.80;;
44862;SDS011;30597;49.628;10.850;2022-10-16T03:39:47;2.03;;;1.93;;
44862;SDS011;30597;49.628;10.850;2022-10-16T03:42:16;2.07;;;1.87;;
44862;SDS011;30597;49.628;10.850;2022-10-16T03:44:50;2.13;;;1.93;;
44862;SDS011;30597;49.628;10.850;2022-10-16T03:47:22;2.33;;;1.87;;
44862;SDS011;30597;49.628;10.850;2022-10-16T03:49:49;2.10;;;1.90;;
44862;SDS011;30597;49.628;10.850;2022-10-16T03:52:17;2.00;;;1.80;;
44862;SDS011;30597;49.628;10.850;2022-10-16T03:54:44;2.30;;;2.00;;
44862;SDS011;30597;49.628;10.850;2022-10-16T03:57:09;1.97;;;1.77;;
44862;SDS011;30597;49.628;10.850;2022-10-16T03:59:36;1.90;;;1.77;;
44862;SDS011;30597;49.628;10.850;2022-10-16T04:02:03;1.93;;;1.57;;
44862;SDS011;30597;49.628;10.850;2022-10-16T04:04:32;2.57;;;2.37;;
44862;SDS011;30597;49.628;10.850;2022-10-16T04:07:01;2.03;;;1.50;;
44862;SDS011;30597;49.628;10.850;2022-10-16T04:09:53;2.50;;;1.60;;
44862;SDS011;30597;49.628;10.850;2022-10-16T04:12:33;2.20;;;2.00;;
44862;SDS011;30597;49.628;10.850;2022-10-16T04:15:10;1.73;;;1.63;;
44862;SDS011;30597;49.628;10.850;2022-10-16T04:17:40;2.13;;;1.93;;
44862;SDS011;30597;49.628;10.850;2022-10-16T04:20:08;2.63;;;1.80;;
44862;SDS011;30597;49.628;10.850;2022-10-16T04:22:35;2.00;;;1.80;;
44862;SDS011;30597;49.628;10.850;2022-10-16T04:25:02;1.77;;;1.67;;
44862;SDS011;30597;49.628;10.850;2022-10-16T04:27:30;1.80;;;1.60;;
44862;SDS011;30597;49.628;10.850;2022-10-16T04:30:00;3.30;;;1.87;;
44862;SDS011;30597;49.628;10.850;2022-10-16T04:32:28;2.07;;;1.87;;
44862;SDS011;30597;49.628;10.850;2022-10-16T04:34:59;1.47;;;1.30;;
44862;SDS011;30597;49.628;10.850;2022-10-16T04:37:29;1.73;;;1.63;;
44862;SDS011;30597;49.628;10.850;2022-10-16T04:39:55;1.80;;;1.60;;
44862;SDS011;30597;49.628;10.850;2022-10-16T04:42:21;2.10;;;1.77;;
44862;SDS011;30597;49.628;10.850;2022-10-16T04:44:48;1.50;;;1.40;;
44862;SDS011;30597;49.628;10.850;2022-10-16T04:47:15;1.83;;;1.67;;
44862;SDS011;30597;49.628;10.850;2022-10-16T04:49:42;1.70;;;1.60;;
44862;SDS011;30597;49.628;10.850;2022-10-16T04:52:09;2.20;;;1.87;;
44862;SDS011;30597;49.628;10.850;2022-10-16T04:54:39;2.70;;;2.20;;
44862;SDS011;30597;49.628;10.850;2022-10-16T04:57:07;1.90;;;1.80;;
44862;SDS011;30597;49.628;10.850;2022-10-16T04:59:33;1.60;;;1.50;;
44862;SDS011;30597;49.628;10.850;2022-10-16T05:02:02;1.87;;;1.67;;
44862;SDS011;30597;49.628;10.850;2022-10-16T05:04:31;1.87;;;1.70;;
44862;SDS011;30597;49.628;10.850;2022-10-16T05:06:58;2.20;;;2.00;;
44862;SDS011;30597;49.628;10.850;2022-10-16T05:09:25;1.90;;;1.80;;
44862;SDS011;30597;49.628;10.850;2022-10-16T05:11:53;1.90;;;1.70;;
44862;SDS011;30597;49.628;10.850;2022-10-16T05:14:23;1.50;;;1.33;;
44862;SDS011;30597;49.628;10.850;2022-10-16T05:16:52;2.97;;;1.93;;
44862;SDS011;30597;49.628;10.850;2022-10-16T05:19:19;1.60;;;1.47;;
44862;SDS011;30597;49.628;10.850;2022-10-16T05:21:45;2.03;;;1.73;;
44862;SDS011;30597;49.628;10.850;2022-10-16T05:24:15;1.80;;;1.67;;
44862;SDS011;30597;49.628;10.850;2022-10-16T05:27:02;1.57;;;1.47;;
44862;SDS011;30597;49.628;10.850;2022-10-16T05:29:48;1.83;;;1.50;;
44862;SDS011;30597;49.628;10.850;2022-10-16T05:32:18;2.00;;;1.90;;
44862;SDS011;30597;49.628;10.850;2022-10-16T05:34:44;1.70;;;1.60;;
44862;SDS011;30597;49.628;10.850;2022-10-16T05:37:12;1.53;;;1.43;;
44862;SDS011;30597;49.628;10.850;2022-10-16T05:39:38;1.60;;;1.50;;
44862;SDS011;30597;49.628;10.850;2022-10-16T05:42:05;2.13;;;1.93;;
44862;SDS011;30597;49.628;10.850;2022-10-16T05:44:31;1.70;;;1.60;;
44862;SDS011;30597;49.628;10.850;2022-10-16T05:46:57;2.07;;;1.70;;
44862;SDS011;30597;49.628;10.850;2022-10-16T05:49:22;1.53;;;1.43;;
44862;SDS011;30597;49.628;10.850;2022-10-16T05:51:53;2.40;;;1.80;;
44862;SDS011;30597;49.628;10.850;2022-10-16T05:54:19;2.30;;;2.10;;
44862;SDS011;30597;49.628;10.850;2022-10-16T05:56:49;1.80;;;1.63;;
44862;SDS011;30597;49.628;10.850;2022-10-16T05:59:20;1.60;;;1.47;;
44862;SDS011;30597;49.628;10.850;2022-10-16T06:01:50;1.60;;;1.50;;
44862;SDS011;30597;49.628;10.850;2022-10-16T06:04:21;2.70;;;1.70;;
44862;SDS011;30597;49.628;10.850;2022-10-16T06:06:46;1.73;;;1.40;;
44862;SDS011;30597;49.628;10.850;2022-10-16T06:09:20;1.53;;;1.43;;
44862;SDS011;30597;49.628;10.850;2022-10-16T06:11:47;2.13;;;1.93;;
44862;SDS011;30597;49.628;10.850;2022-10-16T06:14:23;1.60;;;1.50;;
44862;SDS011;30597;49.628;10.850;2022-10-16T06:16:51;1.67;;;1.57;;
44862;SDS011;30597;49.628;10.850;2022-10-16T06:19:17;1.90;;;1.60;;
44862;SDS011;30597;49.628;10.850;2022-10-16T06:21:46;1.50;;;1.40;;
44862;SDS011;30597;49.628;10.850;2022-10-16T06:24:17;2.20;;;2.00;;
44862;SDS011;30597;49.628;10.850;2022-10-16T06:26:57;1.40;;;1.30;;
44862;SDS011;30597;49.628;10.850;2022-10-16T06:30:08;1.70;;;1.60;;
44862;SDS011;30597;49.628;10.850;2022-10-16T06:32:44;1.90;;;1.60;;
44862;SDS011;30597;49.628;10.850;2022-10-16T06:35:10;1.67;;;1.57;;
44862;SDS011;30597;49.628;10.850;2022-10-16T06:37:38;1.73;;;1.63;;
44862;SDS011;30597;49.628;10.850;2022-10-16T06:40:09;1.50;;;1.40;;
44862;SDS011;30597;49.628;10.850;2022-10-16T06:42:38;2.07;;;1.87;;
44862;SDS011;30597;49.628;10.850;2022-10-16T06:45:06;1.50;;;1.30;;
44862;SDS011;30597;49.628;10.850;2022-10-16T06:47:42;1.20;;;1.10;;
44862;SDS011;30597;49.628;10.850;2022-10-16T06:50:20;1.80;;;1.37;;
44862;SDS011;30597;49.628;10.850;2022-10-16T06:52:50;1.73;;;1.50;;
44862;SDS011;30597;49.628;10.850;2022-10-16T06:55:18;1.20;;;1.10;;
44862;SDS011;30597;49.628;10.850;2022-10-16T06:57:51;1.80;;;1.70;;
44862;SDS011;30597;49.628;10.850;2022-10-16T07:00:17;1.50;;;1.30;;
44862;SDS011;30597;49.628;10.850;2022-10-16T07:02:45;1.97;;;1.70;;
44862;SDS011;30597;49.628;10.850;2022-10-16T07:05:16;2.53;;;1.60;;
44862;SDS011;30597;49.628;10.850;2022-10-16T07:07:53;3.10;;;2.00;;
44862;SDS011;30597;49.628;10.850;2022-10-16T07:11:11;1.70;;;1.60;;
44862;SDS011;30597;49.628;10.850;2022-10-16T07:14:19;2.33;;;1.70;;
44862;SDS011;30597;49.628;10.850;2022-10-16T07:16:49;1.97;;;1.83;;
44862;SDS011;30597;49.628;10.850;2022-10-16T07:19:15;2.40;;;1.60;;
44862;SDS011;30597;49.628;10.850;2022-10-16T07:21:43;1.60;;;1.50;;
44862;SDS011;30597;49.628;10.850;2022-10-16T07:24:15;2.00;;;1.80;;
44862;SDS011;30597;49.628;10.850;2022-10-16T07:26:47;2.10;;;1.60;;
44862;SDS011;30597;49.628;10.850;2022-10-16T07:29:13;2.10;;;1.90;;
44862;SDS011;30597;49.628;10.850;2022-10-16T07:31:42;1.80;;;1.70;;
44862;SDS011;30597;49.628;10.850;2022-10-16T07:34:15;3.80;;;1.70;;
44862;SDS011;30597;49.628;10.850;2022-10-16T07:36:42;3.80;;;2.30;;
44862;SDS011;30597;49.628;10.850;2022-10-16T07:39:10;3.60;;;1.70;;
44862;SDS011;30597;49.628;10.850;2022-10-16T07:41:35;2.10;;;1.90;;
44862;SDS011;30597;49.628;10.850;2022-10-16T07:44:02;2.63;;;2.30;;
44862;SDS011;30597;49.628;10.850;2022-10-16T07:46:28;2.60;;;2.27;;
44862;SDS011;30597;49.628;10.850;2022-10-16T07:48:56;3.00;;;2.70;;
44862;SDS011;30597;49.628;10.850;2022-10-16T07:51:26;3.30;;;2.30;;
44862;SDS011;30597;49.628;10.850;2022-10-16T07:53:53;3.00;;;2.57;;
44862;SDS011;30597;49.628;10.850;2022-10-16T07:56:19;5.70;;;2.17;;
44862;SDS011;30597;49.628;10.850;2022-10-16T07:58:47;4.07;;;2.40;;
44862;SDS011;30597;49.628;10.850;2022-10-16T08:01:15;2.17;;;1.97;;
44862;SDS011;30597;49.628;10.850;2022-10-16T08:03:43;4.60;;;2.37;;
44862;SDS011;30597;49.628;10.850;2022-10-16T08:06:11;2.70;;;2.50;;
44862;SDS011;30597;49.628;10.850;2022-10-16T08:08:37;2.80;;;2.60;;
44862;SDS011;30597;49.628;10.850;2022-10-16T08:11:03;2.40;;;2.20;;
44862;SDS011;30597;49.628;10.850;2022-10-16T08:13:29;2.70;;;2.50;;
44862;SDS011;30597;49.628;10.850;2022-10-16T08:15:55;2.27;;;2.07;;
44862;SDS011;30597;49.628;10.850;2022-10-16T08:18:24;2.73;;;2.27;;
44862;SDS011;30597;49.628;10.850;2022-10-16T08:20:57;3.63;;;2.03;;
44862;SDS011;30597;49.628;10.850;2022-10-16T08:23:26;3.57;;;2.30;;
44862;SDS011;30597;49.628;10.850;2022-10-16T08:25:54;3.43;;;2.00;;
44862;SDS011;30597;49.628;10.850;2022-10-16T08:28:21;3.07;;;2.30;;
44862;SDS011;30597;49.628;10.850;2022-10-16T08:30:48;2.13;;;1.93;;
44862;SDS011;30597;49.628;10.850;2022-10-16T08:33:14;3.70;;;2.53;;
44862;SDS011;30597;49.628;10.850;2022-10-16T08:35:40;2.50;;;2.30;;
44862;SDS011;30597;49.628;10.850;2022-10-16T08:38:09;2.67;;;2.47;;
44862;SDS011;30597;49.628;10.850;2022-10-16T08:40:36;2.00;;;1.90;;
44862;SDS011;30597;49.628;10.850;2022-10-16T08:43:18;2.17;;;2.00;;
44862;SDS011;30597;49.628;10.850;2022-10-16T08:48:35;2.27;;;2.07;;
44862;SDS011;30597;49.628;10.850;2022-10-16T08:51:24;2.60;;;2.40;;
44862;SDS011;30597;49.628;10.850;2022-10-16T08:57:00;2.73;;;2.50;;
44862;SDS011;30597;49.628;10.850;2022-10-16T08:59:36;6.03;;;2.40;;
44862;SDS011;30597;49.628;10.850;2022-10-16T09:02:01;4.10;;;2.60;;
44862;SDS011;30597;49.628;10.850;2022-10-16T09:15:47;2.40;;;2.20;;
44862;SDS011;30597;49.628;10.850;2022-10-16T09:21:24;3.00;;;2.60;;
44862;SDS011;30597;49.628;10.850;2022-10-16T09:24:14;4.13;;;2.33;;
44862;SDS011;30597;49.628;10.850;2022-10-16T09:26:45;2.60;;;2.20;;
44862;SDS011;30597;49.628;10.850;2022-10-16T09:29:15;3.90;;;2.30;;
44862;SDS011;30597;49.628;10.850;2022-10-16T09:31:45;3.33;;;2.47;;
44862;SDS011;30597;49.628;10.850;2022-10-16T09:34:19;3.77;;;3.30;;
44862;SDS011;30597;49.628;10.850;2022-10-16T09:36:59;3.30;;;2.97;;
44862;SDS011;30597;49.628;10.850;2022-10-16T09:40:11;4.10;;;3.40;;
44862;SDS011;30597;49.628;10.850;2022-10-16T09:42:34;3.50;;;3.20;;
44862;SDS011;30597;49.628;10.850;2022-10-16T09:45:19;3.80;;;2.37;;
44862;SDS011;30597;49.628;10.850;2022-10-16T09:47:49;3.43;;;2.67;;
44862;SDS011;30597;49.628;10.850;2022-10-16T09:50:25;4.90;;;2.90;;
44862;SDS011;30597;49.628;10.850;2022-10-16T09:53:10;4.40;;;3.53;;
44862;SDS011;30597;49.628;10.850;2022-10-16T09:55:48;3.10;;;2.70;;
44862;SDS011;30597;49.628;10.850;2022-10-16T09:58:15;5.50;;;3.23;;
44862;SDS011;30597;49.628;10.850;2022-10-16T10:00:42;3.20;;;2.90;;
44862;SDS011;30597;49.628;10.850;2022-10-16T10:06:06;3.93;;;2.70;;
44862;SDS011;30597;49.628;10.850;2022-10-16T10:09:00;7.57;;;3.43;;
44862;SDS011;30597;49.628;10.850;2022-10-16T10:11:50;4.90;;;2.60;;
44862;SDS011;30597;49.628;10.850;2022-10-16T10:14:36;3.93;;;3.40;;
44862;SDS011;30597;49.628;10.850;2022-10-16T10:19:43;5.40;;;3.57;;
44862;SDS011;30597;49.628;10.850;2022-10-16T10:22:24;3.67;;;3.07;;
44862;SDS011;30597;49.628;10.850;2022-10-16T10:30:54;5.37;;;3.60;;
44862;SDS011;30597;49.628;10.850;2022-10-16T10:55:33;4.00;;;3.00;;
44862;SDS011;30597;49.628;10.850;2022-10-16T11:06:31;4.17;;;3.00;;
44862;SDS011;30597;49.628;10.850;2022-10-16T11:09:06;3.10;;;2.80;;
44862;SDS011;30597;49.628;10.850;2022-10-16T11:11:40;3.67;;;2.70;;
44862;SDS011;30597;49.628;10.850;2022-10-16T11:14:36;3.83;;;2.73;;
44862;SDS011;30597;49.628;10.850;2022-10-16T11:17:08;3.90;;;3.10;;
44862;SDS011;30597;49.628;10.850;2022-10-16T11:19:46;3.80;;;3.23;;
44862;SDS011;30597;49.628;10.850;2022-10-16T11:22:27;3.57;;;2.50;;
44862;SDS011;30597;49.628;10.850;2022-10-16T11:25:12;4.30;;;3.10;;
44862;SDS011;30597;49.628;10.850;2022-10-16T11:30:53;2.83;;;2.60;;
44862;SDS011;30597;49.628;10.850;2022-10-16T11:33:57;3.33;;;2.77;;
44862;SDS011;30597;49.628;10.850;2022-10-16T11:36:48;3.20;;;2.67;;
44862;SDS011;30597;49.628;10.850;2022-10-16T11:39:29;3.87;;;3.37;;
44862;SDS011;30597;49.628;10.850;2022-10-16T11:47:41;3.90;;;2.93;;
44862;SDS011;30597;49.628;10.850;2022-10-16T11:50:17;3.30;;;2.57;;
44862;SDS011;30597;49.628;10.850;2022-10-16T11:53:14;3.87;;;3.30;;
44862;SDS011;30597;49.628;10.850;2022-10-16T11:55:47;5.00;;;3.23;;
44862;SDS011;30597;49.628;10.850;2022-10-16T11:58:20;3.40;;;3.10;;
44862;SDS011;30597;49.628;10.850;2022-10-16T12:00:57;3.33;;;2.90;;
44862;SDS011;30597;49.628;10.850;2022-10-16T12:07:08;3.63;;;3.27;;
44862;SDS011;30597;49.628;10.850;2022-10-16T12:09:40;5.73;;;3.50;;
44862;SDS011;30597;49.628;10.850;2022-10-16T12:12:24;6.90;;;3.67;;
44862;SDS011;30597;49.628;10.850;2022-10-16T12:15:15;3.40;;;2.80;;
44862;SDS011;30597;49.628;10.850;2022-10-16T12:17:54;3.57;;;2.60;;
44862;SDS011;30597;49.628;10.850;2022-10-16T12:23:01;4.03;;;3.10;;
44862;SDS011;30597;49.628;10.850;2022-10-16T12:25:37;3.90;;;3.30;;
44862;SDS011;30597;49.628;10.850;2022-10-16T12:28:19;3.20;;;2.90;;
44862;SDS011;30597;49.628;10.850;2022-10-16T12:30:54;4.17;;;3.17;;
44862;SDS011;30597;49.628;10.850;2022-10-16T12:33:25;3.13;;;2.83;;
44862;SDS011;30597;49.628;10.850;2022-10-16T12:35:59;13.17;;;4.50;;
44862;SDS011;30597;49.628;10.850;2022-10-16T12:39:04;6.07;;;4.33;;
44862;SDS011;30597;49.628;10.850;2022-10-16T12:41:35;6.70;;;3.87;;
44862;SDS011;30597;49.628;10.850;2022-10-16T12:44:22;4.33;;;3.10;;
44862;SDS011;30597;49.628;10.850;2022-10-16T12:46:49;4.03;;;3.40;;
44862;SDS011;30597;49.628;10.850;2022-10-16T12:51:58;7.17;;;4.17;;
44862;SDS011;30597;49.628;10.850;2022-10-16T12:54:28;5.93;;;4.43;;
44862;SDS011;30597;49.628;10.850;2022-10-16T12:57:09;4.53;;;3.50;;
44862;SDS011;30597;49.628;10.850;2022-10-16T13:05:50;4.17;;;3.77;;
44862;SDS011;30597;49.628;10.850;2022-10-16T13:08:54;4.57;;;3.63;;
44862;SDS011;30597;49.628;10.850;2022-10-16T13:14:53;4.07;;;3.37;;
44862;SDS011;30597;49.628;10.850;2022-10-16T13:20:21;5.77;;;3.77;;
44862;SDS011;30597;49.628;10.850;2022-10-16T13:28:32;5.67;;;3.67;;
44862;SDS011;30597;49.628;10.850;2022-10-16T13:31:00;4.80;;;3.93;;
44862;SDS011;30597;49.628;10.850;2022-10-16T13:33:41;4.30;;;3.70;;
44862;SDS011;30597;49.628;10.850;2022-10-16T13:36:20;3.60;;;2.90;;
44862;SDS011;30597;49.628;10.850;2022-10-16T13:38:48;3.23;;;2.93;;
44862;SDS011;30597;49.628;10.850;2022-10-16T13:41:39;3.83;;;3.30;;
44862;SDS011;30597;49.628;10.850;2022-10-16T13:44:12;4.27;;;3.07;;
44862;SDS011;30597;49.628;10.850;2022-10-16T13:46:46;3.77;;;3.43;;
44862;SDS011;30597;49.628;10.850;2022-10-16T13:49:26;5.47;;;4.20;;
44862;SDS011;30597;49.628;10.850;2022-10-16T13:51:57;3.63;;;2.83;;
44862;SDS011;30597;49.628;10.850;2022-10-16T13:54:25;3.03;;;2.73;;
44862;SDS011;30597;49.628;10.850;2022-10-16T13:56:53;3.83;;;3.40;;
44862;SDS011;30597;49.628;10.850;2022-10-16T13:59:33;4.83;;;3.53;;
44862;SDS011;30597;49.628;10.850;2022-10-16T14:05:00;9.43;;;4.70;;
44862;SDS011;30597;49.628;10.850;2022-10-16T14:07:29;4.90;;;4.30;;
44862;SDS011;30597;49.628;10.850;2022-10-16T14:10:04;6.47;;;4.37;;
44862;SDS011;30597;49.628;10.850;2022-10-16T14:12:57;4.53;;;4.00;;
44862;SDS011;30597;49.628;10.850;2022-10-16T14:15:30;5.10;;;3.93;;
44862;SDS011;30597;49.628;10.850;2022-10-16T14:18:01;5.97;;;4.70;;
44862;SDS011;30597;49.628;10.850;2022-10-16T14:20:34;6.30;;;4.33;;
44862;SDS011;30597;49.628;10.850;2022-10-16T14:23:02;5.20;;;4.47;;
44862;SDS011;30597;49.628;10.850;2022-10-16T14:25:31;4.77;;;4.27;;
44862;SDS011;30597;49.628;10.850;2022-10-16T14:30:25;6.37;;;4.83;;
44862;SDS011;30597;49.628;10.850;2022-10-16T14:32:58;9.50;;;4.50;;
44862;SDS011;30597;49.628;10.850;2022-10-16T14:35:36;7.83;;;4.63;;
44862;SDS011;30597;49.628;10.850;2022-10-16T14:38:04;5.70;;;4.20;;
44862;SDS011;30597;49.628;10.850;2022-10-16T14:40:46;4.90;;;4.20;;
44862;SDS011;30597;49.628;10.850;2022-10-16T14:43:32;4.80;;;4.23;;
44862;SDS011;30597;49.628;10.850;2022-10-16T14:46:01;4.43;;;4.00;;
44862;SDS011;30597;49.628;10.850;2022-10-16T14:48:49;4.17;;;3.77;;
44862;SDS011;30597;49.628;10.850;2022-10-16T14:51:19;6.83;;;4.70;;
44862;SDS011;30597;49.628;10.850;2022-10-16T14:53:53;5.93;;;4.33;;
44862;SDS011;30597;49.628;10.850;2022-10-16T14:56:20;8.13;;;4.90;;
44862;SDS011;30597;49.628;10.850;2022-10-16T14:58:49;4.40;;;3.90;;
44862;SDS011;30597;49.628;10.850;2022-10-16T15:01:15;5.60;;;4.30;;
44862;SDS011;30597;49.628;10.850;2022-10-16T15:03:45;7.67;;;4.50;;
44862;SDS011;30597;49.628;10.850;2022-10-16T15:06:12;6.00;;;4.20;;
44862;SDS011;30597;49.628;10.850;2022-10-16T15:08:45;4.13;;;3.73;;
44862;SDS011;30597;49.628;10.850;2022-10-16T15:11:17;4.43;;;4.03;;
44862;SDS011;30597;49.628;10.850;2022-10-16T15:13:51;5.30;;;4.70;;
44862;SDS011;30597;49.628;10.850;2022-10-16T15:16:43;4.30;;;3.90;;
44862;SDS011;30597;49.628;10.850;2022-10-16T15:19:41;5.17;;;4.67;;
44862;SDS011;30597;49.628;10.850;2022-10-16T15:25:41;9.43;;;5.50;;
44862;SDS011;30597;49.628;10.850;2022-10-16T15:28:15;6.43;;;5.03;;
44862;SDS011;30597;49.628;10.850;2022-10-16T15:30:42;7.77;;;5.20;;
44862;SDS011;30597;49.628;10.850;2022-10-16T15:33:18;8.30;;;6.10;;
44862;SDS011;30597;49.628;10.850;2022-10-16T15:35:46;6.23;;;5.23;;
44862;SDS011;30597;49.628;10.850;2022-10-16T15:38:13;6.40;;;5.50;;
44862;SDS011;30597;49.628;10.850;2022-10-16T15:40:40;6.20;;;5.60;;
44862;SDS011;30597;49.628;10.850;2022-10-16T15:43:06;10.83;;;6.00;;
44862;SDS011;30597;49.628;10.850;2022-10-16T15:45:32;5.67;;;4.83;;
44862;SDS011;30597;49.628;10.850;2022-10-16T15:47:57;8.13;;;5.17;;
44862;SDS011;30597;49.628;10.850;2022-10-16T15:50:23;9.67;;;6.27;;
44862;SDS011;30597;49.628;10.850;2022-10-16T15:52:49;7.60;;;5.97;;
44862;SDS011;30597;49.628;10.850;2022-10-16T15:55:15;8.93;;;5.50;;
44862;SDS011;30597;49.628;10.850;2022-10-16T15:57:42;9.53;;;7.10;;
44862;SDS011;30597;49.628;10.850;2022-10-16T16:00:12;6.00;;;5.20;;
44862;SDS011;30597;49.628;10.850;2022-10-16T16:02:42;6.30;;;5.70;;
44862;SDS011;30597;49.628;10.850;2022-10-16T16:05:09;7.23;;;5.67;;
44862;SDS011;30597;49.628;10.850;2022-10-16T16:07:36;5.90;;;5.00;;
44862;SDS011;30597;49.628;10.850;2022-10-16T16:10:03;5.87;;;5.30;;
44862;SDS011;30597;49.628;10.850;2022-10-16T16:12:30;6.07;;;5.33;;
44862;SDS011;30597;49.628;10.850;2022-10-16T16:14:56;6.53;;;5.53;;
44862;SDS011;30597;49.628;10.850;2022-10-16T16:17:21;6.77;;;5.67;;
44862;SDS011;30597;49.628;10.850;2022-10-16T16:19:48;6.33;;;5.50;;
44862;SDS011;30597;49.628;10.850;2022-10-16T16:22:14;5.00;;;4.50;;
44862;SDS011;30597;49.628;10.850;2022-10-16T16:24:39;6.20;;;5.60;;
44862;SDS011;30597;49.628;10.850;2022-10-16T16:27:05;5.60;;;5.00;;
44862;SDS011;30597;49.628;10.850;2022-10-16T16:29:30;7.00;;;5.83;;
44862;SDS011;30597;49.628;10.850;2022-10-16T16:31:56;6.67;;;5.30;;
44862;SDS011;30597;49.628;10.850;2022-10-16T16:34:24;5.37;;;4.87;;
44862;SDS011;30597;49.628;10.850;2022-10-16T16:36:50;6.40;;;5.77;;
44862;SDS011;30597;49.628;10.850;2022-10-16T16:39:16;6.80;;;5.10;;
44862;SDS011;30597;49.628;10.850;2022-10-16T16:41:42;6.23;;;5.63;;
44862;SDS011;30597;49.628;10.850;2022-10-16T16:44:09;5.73;;;4.93;;
44862;SDS011;30597;49.628;10.850;2022-10-16T16:46:35;5.30;;;4.63;;
44862;SDS011;30597;49.628;10.850;2022-10-16T16:49:02;6.93;;;5.47;;
44862;SDS011;30597;49.628;10.850;2022-10-16T16:51:28;7.20;;;6.17;;
44862;SDS011;30597;49.628;10.850;2022-10-16T16:53:54;6.27;;;5.60;;
44862;SDS011;30597;49.628;10.850;2022-10-16T16:56:21;5.70;;;4.93;;
44862;SDS011;30597;49.628;10.850;2022-10-16T16:58:48;6.27;;;5.20;;
44862;SDS011;30597;49.628;10.850;2022-10-16T17:01:15;6.40;;;5.70;;
44862;SDS011;30597;49.628;10.850;2022-10-16T17:03:42;7.20;;;5.87;;
44862;SDS011;30597;49.628;10.850;2022-10-16T17:06:12;9.23;;;6.30;;
44862;SDS011;30597;49.628;10.850;2022-10-16T17:08:39;8.10;;;5.80;;